createdAt,value
2019-05-23T00:00:41.716Z,1008.86
2019-05-23T00:01:41.902Z,1008.84
2019-05-23T00:02:42.119Z,1008.88
2019-05-23T00:03:42.333Z,1008.84
2019-05-23T00:04:42.525Z,1008.87
2019-05-23T00:05:42.726Z,1008.77
2019-05-23T00:06:42.906Z,1008.83
2019-05-23T00:07:43.138Z,1008.80
2019-05-23T00:08:43.328Z,1008.90
2019-05-23T00:09:43.536Z,1008.82
2019-05-23T00:10:43.771Z,1008.82
2019-05-23T00:11:43.887Z,1008.84
2019-05-23T00:12:44.014Z,1008.87
2019-05-23T00:13:44.186Z,1008.86
2019-05-23T00:14:44.350Z,1008.86
2019-05-23T00:15:44.546Z,1008.83
2019-05-23T00:16:44.729Z,1008.81
2019-05-23T00:17:44.935Z,1008.80
2019-05-23T00:18:45.112Z,1008.85
2019-05-23T00:19:45.297Z,1008.81
2019-05-23T00:20:45.495Z,1008.84
2019-05-23T00:21:45.670Z,1008.78
2019-05-23T00:22:45.900Z,1008.81
2019-05-23T00:23:46.084Z,1008.78
2019-05-23T00:24:46.268Z,1008.82
2019-05-23T00:25:46.445Z,1008.74
2019-05-23T00:26:46.635Z,1008.83
2019-05-23T00:27:46.825Z,1008.76
2019-05-23T00:28:47.034Z,1008.76
2019-05-23T00:29:47.189Z,1008.69
2019-05-23T00:30:47.373Z,1008.75
2019-05-23T00:31:47.519Z,1008.68
2019-05-23T00:32:47.728Z,1008.81
2019-05-23T00:33:47.934Z,1008.77
2019-05-23T00:34:48.110Z,1008.76
2019-05-23T00:35:48.299Z,1008.80
2019-05-23T00:36:48.503Z,1008.79
2019-05-23T00:37:48.714Z,1008.82
2019-05-23T00:38:48.922Z,1008.80
2019-05-23T00:39:49.118Z,1008.79
2019-05-23T00:40:49.307Z,1008.80
2019-05-23T00:41:49.548Z,1008.79
2019-05-23T00:42:49.748Z,1008.77
2019-05-23T00:43:49.948Z,1008.78
2019-05-23T00:44:50.160Z,1008.77
2019-05-23T00:45:50.348Z,1008.71
2019-05-23T00:46:50.617Z,1008.79
2019-05-23T00:47:50.786Z,1008.76
2019-05-23T00:48:50.999Z,1008.73
2019-05-23T00:49:51.188Z,1008.73
2019-05-23T00:50:51.355Z,1008.73
2019-05-23T00:51:51.538Z,1008.77
2019-05-23T00:52:51.709Z,1008.76
2019-05-23T00:53:51.863Z,1008.76
2019-05-23T00:54:52.036Z,1008.79
2019-05-23T00:55:52.211Z,1008.77
2019-05-23T00:56:52.388Z,1008.69
2019-05-23T00:57:52.555Z,1008.79
2019-05-23T00:58:52.707Z,1008.80
2019-05-23T00:59:52.858Z,1008.76
2019-05-23T01:00:53.051Z,1008.77
2019-05-23T01:01:53.202Z,1008.78
2019-05-23T01:02:53.380Z,1008.85
2019-05-23T01:03:53.518Z,1008.72
2019-05-23T01:04:53.685Z,1008.78
2019-05-23T01:05:53.844Z,1008.82
2019-05-23T01:06:53.990Z,1008.80
2019-05-23T01:07:54.147Z,1008.75
2019-05-23T01:08:54.321Z,1008.84
2019-05-23T01:09:54.489Z,1008.82
2019-05-23T01:10:54.677Z,1008.79
2019-05-23T01:11:54.840Z,1008.76
2019-05-23T01:12:55.015Z,1008.85
2019-05-23T01:13:55.156Z,1008.84
2019-05-23T01:14:55.302Z,1008.86
2019-05-23T01:15:55.525Z,1008.89
2019-05-23T01:16:55.673Z,1008.85
2019-05-23T01:17:55.822Z,1008.82
2019-05-23T01:18:55.989Z,1008.86
2019-05-23T01:19:56.140Z,1008.79
2019-05-23T01:20:56.337Z,1008.80
2019-05-23T01:21:56.535Z,1008.79
2019-05-23T01:22:56.694Z,1008.82
2019-05-23T01:23:57.848Z,1008.80
2019-05-23T01:24:57.094Z,1008.72
2019-05-23T01:25:57.280Z,1008.78
2019-05-23T01:26:57.464Z,1008.72
2019-05-23T01:27:57.612Z,1008.78
2019-05-23T01:28:57.785Z,1008.77
2019-05-23T01:29:57.958Z,1008.74
2019-05-23T01:30:58.164Z,1008.77
2019-05-23T01:31:58.304Z,1008.79
2019-05-23T01:32:58.471Z,1008.85
2019-05-23T01:33:58.625Z,1008.82
2019-05-23T01:34:58.780Z,1008.83
2019-05-23T01:35:58.952Z,1008.85
2019-05-23T01:36:59.120Z,1008.78
2019-05-23T01:37:59.372Z,1008.79
2019-05-23T01:38:59.524Z,1008.79
2019-05-23T01:39:59.685Z,1008.82
2019-05-23T01:40:59.845Z,1008.82
2019-05-23T01:42:00.018Z,1008.78
2019-05-23T01:43:00.190Z,1008.82
2019-05-23T01:44:00.332Z,1008.78
2019-05-23T01:45:00.468Z,1008.86
2019-05-23T01:46:00.595Z,1008.78
2019-05-23T01:47:00.749Z,1008.85
2019-05-23T01:48:00.883Z,1008.74
2019-05-23T01:49:01.043Z,1008.74
2019-05-23T01:50:01.161Z,1008.84
2019-05-23T01:51:01.401Z,1008.72
2019-05-23T01:52:01.553Z,1008.81
2019-05-23T01:53:01.693Z,1008.73
2019-05-23T01:54:01.864Z,1008.76
2019-05-23T01:55:02.000Z,1008.71
2019-05-23T01:56:02.151Z,1008.73
2019-05-23T01:57:02.357Z,1008.74
2019-05-23T01:58:02.530Z,1008.73
2019-05-23T01:59:02.686Z,1008.75
2019-05-23T02:00:10.060Z,1008.75
2019-05-23T02:01:04.961Z,1008.73
2019-05-23T02:02:03.199Z,1008.76
2019-05-23T02:03:03.342Z,1008.66
2019-05-23T02:04:03.527Z,1008.68
2019-05-23T02:05:03.676Z,1008.72
2019-05-23T02:06:03.865Z,1008.72
2019-05-23T02:07:04.029Z,1008.71
2019-05-23T02:08:04.291Z,1008.70
2019-05-23T02:09:04.469Z,1008.72
2019-05-23T02:10:04.697Z,1008.72
2019-05-23T02:11:04.788Z,1008.66
2019-05-23T02:12:04.951Z,1008.68
2019-05-23T02:13:05.134Z,1008.69
2019-05-23T02:14:05.346Z,1008.63
2019-05-23T02:15:05.521Z,1008.63
2019-05-23T02:16:05.711Z,1008.59
2019-05-23T02:17:05.873Z,1008.65
2019-05-23T02:18:06.047Z,1008.69
2019-05-23T02:19:06.244Z,1008.62
2019-05-23T02:20:06.426Z,1008.57
2019-05-23T02:21:06.612Z,1008.61
2019-05-23T02:22:06.833Z,1008.59
2019-05-23T02:23:06.986Z,1008.57
2019-05-23T02:24:07.175Z,1008.65
2019-05-23T02:25:07.429Z,1008.61
2019-05-23T02:26:07.613Z,1008.59
2019-05-23T02:27:07.812Z,1008.59
2019-05-23T02:28:07.999Z,1008.59
2019-05-23T02:29:08.214Z,1008.57
2019-05-23T02:30:29.911Z,1008.58
2019-05-23T02:31:09.573Z,1008.59
2019-05-23T02:32:08.701Z,1008.63
2019-05-23T02:33:08.890Z,1008.60
2019-05-23T02:34:09.079Z,1008.61
2019-05-23T02:35:09.281Z,1008.53
2019-05-23T02:36:09.439Z,1008.52
2019-05-23T02:37:09.625Z,1008.59
2019-05-23T02:38:09.787Z,1008.55
2019-05-23T02:39:09.953Z,1008.60
2019-05-23T02:40:10.167Z,1008.55
2019-05-23T02:41:10.335Z,1008.49
2019-05-23T02:42:10.516Z,1008.53
2019-05-23T02:43:10.666Z,1008.55
2019-05-23T02:44:10.879Z,1008.57
2019-05-23T02:45:11.042Z,1008.52
2019-05-23T02:46:11.202Z,1008.55
2019-05-23T02:47:11.382Z,1008.52
2019-05-23T02:48:11.550Z,1008.56
2019-05-23T02:49:11.728Z,1008.55
2019-05-23T02:50:11.869Z,1008.51
2019-05-23T02:51:12.021Z,1008.51
2019-05-23T02:52:12.214Z,1008.51
2019-05-23T02:53:12.409Z,1008.55
2019-05-23T02:54:12.594Z,1008.50
2019-05-23T02:55:12.772Z,1008.55
2019-05-23T02:56:12.974Z,1008.51
2019-05-23T02:57:13.151Z,1008.61
2019-05-23T02:58:13.315Z,1008.54
2019-05-23T02:59:13.484Z,1008.56
2019-05-23T03:00:13.668Z,1008.63
2019-05-23T03:01:13.866Z,1008.56
2019-05-23T03:02:14.025Z,1008.60
2019-05-23T03:03:14.178Z,1008.65
2019-05-23T03:04:14.345Z,1008.55
2019-05-23T03:05:14.505Z,1008.54
2019-05-23T03:06:14.682Z,1008.53
2019-05-23T03:07:14.835Z,1008.56
2019-05-23T03:08:14.987Z,1008.53
2019-05-23T03:09:15.193Z,1008.45
2019-05-23T03:10:15.390Z,1008.50
2019-05-23T03:11:15.549Z,1008.50
2019-05-23T03:12:15.706Z,1008.50
2019-05-23T03:13:15.890Z,1008.48
2019-05-23T03:14:16.077Z,1008.47
2019-05-23T03:15:16.252Z,1008.47
2019-05-23T03:16:16.472Z,1008.44
2019-05-23T03:17:16.688Z,1008.45
2019-05-23T03:18:16.901Z,1008.36
2019-05-23T03:19:17.090Z,1008.43
2019-05-23T03:20:17.287Z,1008.43
2019-05-23T03:21:17.492Z,1008.43
2019-05-23T03:22:17.715Z,1008.47
2019-05-23T03:23:17.889Z,1008.40
2019-05-23T03:24:18.056Z,1008.38
2019-05-23T03:25:18.219Z,1008.42
2019-05-23T03:26:18.405Z,1008.40
2019-05-23T03:27:18.587Z,1008.39
2019-05-23T03:28:18.746Z,1008.40
2019-05-23T03:29:18.895Z,1008.36
2019-05-23T03:30:19.042Z,1008.38
2019-05-23T03:31:30.056Z,1008.34
2019-05-23T03:32:21.447Z,1008.41
2019-05-23T03:33:19.594Z,1008.35
2019-05-23T03:34:19.699Z,1008.39
2019-05-23T03:35:19.901Z,1008.35
2019-05-23T03:36:20.067Z,1008.36
2019-05-23T03:37:20.217Z,1008.35
2019-05-23T03:38:20.375Z,1008.37
2019-05-23T03:39:20.509Z,1008.30
2019-05-23T03:40:20.757Z,1008.37
2019-05-23T03:41:20.874Z,1008.39
2019-05-23T03:42:20.997Z,1008.38
2019-05-23T03:43:21.173Z,1008.36
2019-05-23T03:44:21.317Z,1008.36
2019-05-23T03:45:21.430Z,1008.33
2019-05-23T03:46:21.673Z,1008.41
2019-05-23T03:47:21.919Z,1008.39
2019-05-23T03:48:22.165Z,1008.35
2019-05-23T03:49:22.346Z,1008.29
2019-05-23T03:50:22.508Z,1008.34
2019-05-23T03:51:22.646Z,1008.38
2019-05-23T03:52:22.797Z,1008.36
2019-05-23T03:53:22.966Z,1008.34
2019-05-23T03:54:23.125Z,1008.36
2019-05-23T03:55:23.253Z,1008.31
2019-05-23T03:56:23.381Z,1008.33
2019-05-23T03:57:25.840Z,1008.33
2019-05-23T03:58:24.702Z,1008.30
2019-05-23T03:59:23.964Z,1008.28
2019-05-23T04:00:24.121Z,1008.29
2019-05-23T04:01:24.287Z,1008.33
2019-05-23T04:02:24.449Z,1008.29
2019-05-23T04:03:24.641Z,1008.34
2019-05-23T04:04:24.812Z,1008.28
2019-05-23T04:05:24.985Z,1008.34
2019-05-23T04:06:25.137Z,1008.28
2019-05-23T04:07:25.282Z,1008.31
2019-05-23T04:08:25.420Z,1008.30
2019-05-23T04:09:25.597Z,1008.32
2019-05-23T04:10:25.765Z,1008.24
2019-05-23T04:11:25.897Z,1008.25
2019-05-23T04:12:26.025Z,1008.27
2019-05-23T04:13:26.159Z,1008.26
2019-05-23T04:14:26.294Z,1008.26
2019-05-23T04:15:26.435Z,1008.30
2019-05-23T04:16:30.518Z,1008.26
2019-05-23T04:17:27.742Z,1008.31
2019-05-23T04:18:26.987Z,1008.26
2019-05-23T04:19:27.123Z,1008.27
2019-05-23T04:20:27.308Z,1008.28
2019-05-23T04:21:27.444Z,1008.33
2019-05-23T04:22:27.590Z,1008.28
2019-05-23T04:23:27.720Z,1008.27
2019-05-23T04:24:27.857Z,1008.26
2019-05-23T04:25:28.019Z,1008.31
2019-05-23T04:26:29.187Z,1008.24
2019-05-23T04:27:28.333Z,1008.26
2019-05-23T04:28:28.506Z,1008.24
2019-05-23T04:29:28.657Z,1008.24
2019-05-23T04:30:28.822Z,1008.23
2019-05-23T04:31:29.021Z,1008.20
2019-05-23T04:32:29.184Z,1008.20
2019-05-23T04:33:29.329Z,1008.26
2019-05-23T04:34:29.491Z,1008.28
2019-05-23T04:35:29.631Z,1008.24
2019-05-23T04:36:29.910Z,1008.28
2019-05-23T04:37:29.939Z,1008.29
2019-05-23T04:38:30.094Z,1008.25
2019-05-23T04:39:30.240Z,1008.24
2019-05-23T04:40:30.427Z,1008.15
2019-05-23T04:41:30.609Z,1008.27
2019-05-23T04:42:30.779Z,1008.19
2019-05-23T04:43:30.965Z,1008.30
2019-05-23T04:44:31.145Z,1008.25
2019-05-23T04:45:31.314Z,1008.18
2019-05-23T04:46:31.525Z,1008.22
2019-05-23T04:47:31.699Z,1008.25
2019-05-23T04:48:31.863Z,1008.15
2019-05-23T04:49:32.039Z,1008.24
2019-05-23T04:50:32.205Z,1008.19
2019-05-23T04:51:32.417Z,1008.19
2019-05-23T04:52:32.595Z,1008.16
2019-05-23T04:53:32.798Z,1008.20
2019-05-23T04:54:32.976Z,1008.26
2019-05-23T04:55:33.157Z,1008.20
2019-05-23T04:56:33.395Z,1008.24
2019-05-23T04:57:33.443Z,1008.30
2019-05-23T04:58:33.621Z,1008.31
2019-05-23T04:59:33.812Z,1008.32
2019-05-23T05:00:33.974Z,1008.28
2019-05-23T05:01:34.182Z,1008.27
2019-05-23T05:02:34.375Z,1008.21
2019-05-23T05:03:34.541Z,1008.26
2019-05-23T05:04:34.723Z,1008.23
2019-05-23T05:05:34.890Z,1008.24
2019-05-23T05:06:35.050Z,1008.26
2019-05-23T05:07:35.212Z,1008.23
2019-05-23T05:08:35.405Z,1008.28
2019-05-23T05:09:42.543Z,1008.31
2019-05-23T05:10:35.813Z,1008.23
2019-05-23T05:11:35.995Z,1008.26
2019-05-23T05:12:36.174Z,1008.16
2019-05-23T05:13:36.357Z,1008.19
2019-05-23T05:14:36.562Z,1008.17
2019-05-23T05:15:36.719Z,1008.14
2019-05-23T05:16:36.900Z,1008.22
2019-05-23T05:17:37.117Z,1008.24
2019-05-23T05:18:37.268Z,1008.23
2019-05-23T05:19:37.459Z,1008.12
2019-05-23T05:20:37.645Z,1008.22
2019-05-23T05:21:37.780Z,1008.23
2019-05-23T05:22:37.983Z,1008.23
2019-05-23T05:23:38.231Z,1008.28
2019-05-23T05:24:40.184Z,1008.25
2019-05-23T05:25:39.537Z,1008.23
2019-05-23T05:26:38.707Z,1008.25
2019-05-23T05:27:38.874Z,1008.26
2019-05-23T05:28:39.062Z,1008.17
2019-05-23T05:29:39.240Z,1008.25
2019-05-23T05:30:39.449Z,1008.21
2019-05-23T05:31:40.626Z,1008.22
2019-05-23T05:32:44.913Z,1008.26
2019-05-23T05:33:41.935Z,1008.28
2019-05-23T05:34:40.092Z,1008.27
2019-05-23T05:35:40.256Z,1008.28
2019-05-23T05:36:40.443Z,1008.26
2019-05-23T05:37:40.618Z,1008.32
2019-05-23T05:38:40.757Z,1008.27
2019-05-23T05:39:41.021Z,1008.21
2019-05-23T05:40:41.065Z,1008.28
2019-05-23T05:41:41.196Z,1008.27
2019-05-23T05:42:41.445Z,1008.20
2019-05-23T05:43:41.615Z,1008.23
2019-05-23T05:44:41.818Z,1008.19
2019-05-23T05:45:42.008Z,1008.22
2019-05-23T05:46:42.153Z,1008.25
2019-05-23T05:47:42.312Z,1008.21
2019-05-23T05:48:42.548Z,1008.28
2019-05-23T05:49:42.679Z,1008.25
2019-05-23T05:50:42.738Z,1008.22
2019-05-23T05:51:42.992Z,1008.24
2019-05-23T05:52:43.061Z,1008.26
2019-05-23T05:53:43.256Z,1008.28
2019-05-23T05:54:43.466Z,1008.30
2019-05-23T05:55:43.658Z,1008.37
2019-05-23T05:56:43.826Z,1008.39
2019-05-23T05:57:44.006Z,1008.39
2019-05-23T05:58:44.234Z,1008.37
2019-05-23T05:59:44.422Z,1008.41
2019-05-23T06:00:44.603Z,1008.42
2019-05-23T06:01:44.769Z,1008.36
2019-05-23T06:03:02.806Z,1008.40
2019-05-23T06:03:47.123Z,1008.36
2019-05-23T06:04:45.268Z,1008.35
2019-05-23T06:05:45.468Z,1008.36
2019-05-23T06:06:45.663Z,1008.38
2019-05-23T06:07:45.949Z,1008.39
2019-05-23T06:08:47.113Z,1008.40
2019-05-23T06:09:46.304Z,1008.41
2019-05-23T06:10:46.547Z,1008.35
2019-05-23T06:11:46.773Z,1008.39
2019-05-23T06:12:46.851Z,1008.41
2019-05-23T06:13:47.074Z,1008.40
2019-05-23T06:14:47.248Z,1008.41
2019-05-23T06:15:47.461Z,1008.42
2019-05-23T06:16:47.669Z,1008.45
2019-05-23T06:17:47.888Z,1008.45
2019-05-23T06:18:48.071Z,1008.45
2019-05-23T06:19:48.278Z,1008.33
2019-05-23T06:20:49.414Z,1008.36
2019-05-23T06:21:48.602Z,1008.34
2019-05-23T06:22:48.797Z,1008.31
2019-05-23T06:23:49.000Z,1008.37
2019-05-23T06:24:53.693Z,1008.36
2019-05-23T06:25:51.397Z,1008.31
2019-05-23T06:26:49.583Z,1008.33
2019-05-23T06:27:49.682Z,1008.34
2019-05-23T06:28:49.863Z,1008.41
2019-05-23T06:29:50.102Z,1008.33
2019-05-23T06:30:50.169Z,1008.37
2019-05-23T06:31:50.416Z,1008.34
2019-05-23T06:32:50.492Z,1008.31
2019-05-23T06:33:50.692Z,1008.30
2019-05-23T06:34:50.878Z,1008.26
2019-05-23T06:35:51.097Z,1008.31
2019-05-23T06:36:51.339Z,1008.36
2019-05-23T06:37:51.577Z,1008.25
2019-05-23T06:38:51.678Z,1008.27
2019-05-23T06:39:51.885Z,1008.27
2019-05-23T06:40:52.079Z,1008.22
2019-05-23T06:41:52.269Z,1008.35
2019-05-23T06:42:52.452Z,1008.30
2019-05-23T06:43:52.621Z,1008.29
2019-05-23T06:44:52.785Z,1008.23
2019-05-23T06:45:52.986Z,1008.21
2019-05-23T06:46:53.196Z,1008.17
2019-05-23T06:47:53.355Z,1008.27
2019-05-23T06:48:53.580Z,1008.25
2019-05-23T06:49:53.738Z,1008.24
2019-05-23T06:50:53.921Z,1008.18
2019-05-23T06:51:54.178Z,1008.22
2019-05-23T06:52:54.337Z,1008.24
2019-05-23T06:53:54.472Z,1008.27
2019-05-23T06:54:54.631Z,1008.29
2019-05-23T06:55:54.787Z,1008.24
2019-05-23T06:56:54.977Z,1008.23
2019-05-23T06:57:55.199Z,1008.25
2019-05-23T06:58:55.392Z,1008.22
2019-05-23T06:59:55.554Z,1008.22
2019-05-23T07:00:55.745Z,1008.23
2019-05-23T07:01:55.963Z,1008.25
2019-05-23T07:02:56.155Z,1008.31
2019-05-23T07:03:56.399Z,1008.28
2019-05-23T07:04:56.465Z,1008.27
2019-05-23T07:05:56.644Z,1008.24
2019-05-23T07:06:56.832Z,1008.25
2019-05-23T07:07:57.085Z,1008.27
2019-05-23T07:08:57.227Z,1008.30
2019-05-23T07:09:57.339Z,1008.28
2019-05-23T07:10:57.462Z,1008.29
2019-05-23T07:11:57.625Z,1008.17
2019-05-23T07:12:57.845Z,1008.18
2019-05-23T07:13:57.958Z,1008.19
2019-05-23T07:14:58.176Z,1008.14
2019-05-23T07:15:58.411Z,1008.23
2019-05-23T07:16:58.629Z,1008.16
2019-05-23T07:17:58.828Z,1008.19
2019-05-23T07:18:59.042Z,1008.26
2019-05-23T07:19:59.257Z,1008.20
2019-05-23T07:20:59.481Z,1008.21
2019-05-23T07:21:59.704Z,1008.24
2019-05-23T07:22:59.901Z,1008.21
2019-05-23T07:24:00.092Z,1008.26
2019-05-23T07:25:00.295Z,1008.21
2019-05-23T07:26:00.509Z,1008.27
2019-05-23T07:27:00.707Z,1008.27
2019-05-23T07:28:00.916Z,1008.25
2019-05-23T07:29:01.138Z,1008.26
2019-05-23T07:30:01.407Z,1008.25
2019-05-23T07:31:01.526Z,1008.23
2019-05-23T07:32:01.725Z,1008.26
2019-05-23T07:33:01.919Z,1008.21
2019-05-23T07:34:02.822Z,1008.21
2019-05-23T07:35:03.295Z,1008.22
2019-05-23T07:36:02.480Z,1008.26
2019-05-23T07:37:02.742Z,1008.28
2019-05-23T07:38:02.887Z,1008.25
2019-05-23T07:39:02.976Z,1008.19
2019-05-23T07:40:03.190Z,1008.27
2019-05-23T07:41:03.418Z,1008.22
2019-05-23T07:42:03.682Z,1008.17
2019-05-23T07:43:03.775Z,1008.20
2019-05-23T07:44:03.996Z,1008.14
2019-05-23T07:45:04.111Z,1008.23
2019-05-23T07:46:04.323Z,1008.20
2019-05-23T07:47:04.511Z,1008.16
2019-05-23T07:48:04.714Z,1008.22
2019-05-23T07:49:04.983Z,1008.15
2019-05-23T07:50:05.108Z,1008.13
2019-05-23T07:51:05.305Z,1008.12
2019-05-23T07:52:05.403Z,1008.13
2019-05-23T07:53:05.575Z,1008.09
2019-05-23T07:54:05.821Z,1008.16
2019-05-23T07:55:06.039Z,1008.12
2019-05-23T07:56:06.312Z,1008.20
2019-05-23T07:57:06.343Z,1008.01
2019-05-23T07:58:06.530Z,1008.13
2019-05-23T07:59:06.721Z,1008.06
2019-05-23T08:00:06.886Z,1008.11
2019-05-23T08:01:07.235Z,1008.10
2019-05-23T08:02:07.314Z,1008.06
2019-05-23T08:03:07.544Z,1008.07
2019-05-23T08:04:20.394Z,1007.94
2019-05-23T08:05:09.826Z,1007.89
2019-05-23T08:06:08.012Z,1008.00
2019-05-23T08:07:08.200Z,1007.97
2019-05-23T08:08:08.421Z,1007.94
2019-05-23T08:09:08.608Z,1007.88
2019-05-23T08:10:08.773Z,1007.96
2019-05-23T08:11:08.988Z,1007.93
2019-05-23T08:12:09.195Z,1007.78
2019-05-23T08:13:09.525Z,1007.85
2019-05-23T08:14:12.023Z,1007.89
2019-05-23T08:15:10.811Z,1007.82
2019-05-23T08:16:09.965Z,1007.86
2019-05-23T08:17:10.205Z,1007.88
2019-05-23T08:18:10.395Z,1007.86
2019-05-23T08:19:10.578Z,1007.86
2019-05-23T08:20:10.771Z,1007.82
2019-05-23T08:21:10.953Z,1007.86
2019-05-23T08:22:11.130Z,1007.78
2019-05-23T08:23:11.342Z,1007.83
2019-05-23T08:24:11.521Z,1007.86
2019-05-23T08:25:11.682Z,1007.79
2019-05-23T08:26:11.874Z,1007.82
2019-05-23T08:27:12.068Z,1007.85
2019-05-23T08:28:12.304Z,1007.88
2019-05-23T08:29:25.374Z,1007.83
2019-05-23T08:30:14.758Z,1007.77
2019-05-23T08:31:12.866Z,1007.73
2019-05-23T08:32:13.079Z,1007.82
2019-05-23T08:33:13.263Z,1007.75
2019-05-23T08:34:13.422Z,1007.79
2019-05-23T08:35:17.694Z,1007.82
2019-05-23T08:36:14.718Z,1007.75
2019-05-23T08:37:14.191Z,1007.77
2019-05-23T08:38:14.052Z,1007.65
2019-05-23T08:39:14.206Z,1007.73
2019-05-23T08:40:14.443Z,1007.75
2019-05-23T08:41:14.598Z,1007.79
2019-05-23T08:42:14.720Z,1007.69
2019-05-23T08:43:14.945Z,1007.75
2019-05-23T08:44:15.090Z,1007.67
2019-05-23T08:45:15.297Z,1007.72
2019-05-23T08:46:15.479Z,1007.62
2019-05-23T08:47:15.648Z,1007.68
2019-05-23T08:48:15.856Z,1007.65
2019-05-23T08:49:16.055Z,1007.59
2019-05-23T08:50:16.166Z,1007.60
2019-05-23T08:51:16.345Z,1007.67
2019-05-23T08:52:16.519Z,1007.61
2019-05-23T08:53:16.744Z,1007.57
2019-05-23T08:54:16.933Z,1007.57
2019-05-23T08:55:17.222Z,1007.58
2019-05-23T08:56:19.522Z,1007.58
2019-05-23T08:57:18.512Z,1007.60
2019-05-23T08:58:17.660Z,1007.50
2019-05-23T08:59:17.861Z,1007.55
2019-05-23T09:00:18.044Z,1007.59
2019-05-23T09:01:18.233Z,1007.55
2019-05-23T09:02:18.404Z,1007.50
2019-05-23T09:03:18.677Z,1007.52
2019-05-23T09:04:18.778Z,1007.52
2019-05-23T09:05:18.950Z,1007.43
2019-05-23T09:06:19.205Z,1007.45
2019-05-23T09:07:19.316Z,1007.43
2019-05-23T09:08:19.388Z,1007.42
2019-05-23T09:09:29.654Z,1007.44
2019-05-23T09:10:21.756Z,1007.39
2019-05-23T09:11:19.941Z,1007.48
2019-05-23T09:12:20.105Z,1007.41
2019-05-23T09:13:20.310Z,1007.43
2019-05-23T09:14:20.490Z,1007.36
2019-05-23T09:15:20.711Z,1007.33
2019-05-23T09:16:20.894Z,1007.38
2019-05-23T09:17:21.095Z,1007.40
2019-05-23T09:18:21.321Z,1007.34
2019-05-23T09:19:21.539Z,1007.34
2019-05-23T09:20:21.742Z,1007.32
2019-05-23T09:21:21.978Z,1007.34
2019-05-23T09:22:22.094Z,1007.34
2019-05-23T09:23:22.190Z,1007.31
2019-05-23T09:24:22.548Z,1007.30
2019-05-23T09:25:22.520Z,1007.27
2019-05-23T09:26:22.726Z,1007.29
2019-05-23T09:27:22.928Z,1007.21
2019-05-23T09:28:23.156Z,1007.30
2019-05-23T09:29:23.387Z,1007.24
2019-05-23T09:30:23.623Z,1007.28
2019-05-23T09:31:23.820Z,1007.31
2019-05-23T09:32:24.020Z,1007.33
2019-05-23T09:33:24.215Z,1007.32
2019-05-23T09:34:24.421Z,1007.21
2019-05-23T09:35:24.612Z,1007.26
2019-05-23T09:36:24.802Z,1007.42
2019-05-23T09:37:24.971Z,1007.28
2019-05-23T09:38:25.177Z,1007.28
2019-05-23T09:39:25.337Z,1007.24
2019-05-23T09:40:25.527Z,1007.33
2019-05-23T09:41:25.728Z,1007.17
2019-05-23T09:42:25.879Z,1007.24
2019-05-23T09:43:26.036Z,1007.23
2019-05-23T09:44:26.200Z,1007.29
2019-05-23T09:45:26.368Z,1007.27
2019-05-23T09:46:26.570Z,1007.26
2019-05-23T09:47:26.759Z,1007.18
2019-05-23T09:48:26.903Z,1007.16
2019-05-23T09:49:27.056Z,1007.17
2019-05-23T09:50:27.226Z,1007.23
2019-05-23T09:51:27.418Z,1007.21
2019-05-23T09:52:27.644Z,1007.23
2019-05-23T09:53:27.860Z,1007.22
2019-05-23T09:54:28.030Z,1007.19
2019-05-23T09:55:28.189Z,1007.17
2019-05-23T09:56:28.382Z,1007.13
2019-05-23T09:57:28.543Z,1007.17
2019-05-23T09:58:28.708Z,1007.14
2019-05-23T09:59:28.885Z,1007.10
2019-05-23T10:00:29.077Z,1007.12
2019-05-23T10:01:29.317Z,1007.12
2019-05-23T10:02:29.398Z,1007.14
2019-05-23T10:03:29.603Z,1007.10
2019-05-23T10:04:29.786Z,1007.10
2019-05-23T10:05:42.116Z,1007.01
2019-05-23T10:06:32.113Z,1007.05
2019-05-23T10:07:30.245Z,1007.03
2019-05-23T10:08:30.436Z,1007.04
2019-05-23T10:09:30.604Z,1006.98
2019-05-23T10:10:30.812Z,1006.98
2019-05-23T10:11:49.797Z,1007.10
2019-05-23T10:12:31.086Z,1007.06
2019-05-23T10:13:39.054Z,1006.97
2019-05-23T10:14:33.370Z,1006.94
2019-05-23T10:15:31.499Z,1006.91
2019-05-23T10:16:31.681Z,1006.99
2019-05-23T10:17:31.872Z,1006.91
2019-05-23T10:18:32.090Z,1006.91
2019-05-23T10:19:32.147Z,1006.82
2019-05-23T10:20:32.309Z,1006.90
2019-05-23T10:21:32.622Z,1006.84
2019-05-23T10:22:32.729Z,1006.87
2019-05-23T10:23:32.894Z,1006.85
2019-05-23T10:24:33.069Z,1006.88
2019-05-23T10:25:33.214Z,1006.72
2019-05-23T10:26:33.374Z,1006.76
2019-05-23T10:27:33.615Z,1006.74
2019-05-23T10:28:33.786Z,1006.74
2019-05-23T10:29:34.018Z,1006.76
2019-05-23T10:30:34.197Z,1006.75
2019-05-23T10:31:34.463Z,1006.75
2019-05-23T10:32:34.561Z,1006.77
2019-05-23T10:33:34.766Z,1006.70
2019-05-23T10:34:34.966Z,1006.73
2019-05-23T10:35:35.168Z,1006.75
2019-05-23T10:36:35.401Z,1006.67
2019-05-23T10:37:35.703Z,1006.71
2019-05-23T10:38:35.806Z,1006.67
2019-05-23T10:39:36.000Z,1006.68
2019-05-23T10:40:36.185Z,1006.68
2019-05-23T10:41:36.410Z,1006.64
2019-05-23T10:42:36.527Z,1006.58
2019-05-23T10:43:36.742Z,1006.67
2019-05-23T10:44:36.950Z,1006.61
2019-05-23T10:45:37.173Z,1006.60
2019-05-23T10:46:37.262Z,1006.55
2019-05-23T10:47:37.483Z,1006.54
2019-05-23T10:48:37.713Z,1006.53
2019-05-23T10:49:37.902Z,1006.54
2019-05-23T10:50:44.874Z,1006.50
2019-05-23T10:51:40.303Z,1006.43
2019-05-23T10:52:38.620Z,1006.49
2019-05-23T10:53:38.674Z,1006.43
2019-05-23T10:54:38.873Z,1006.47
2019-05-23T10:55:39.027Z,1006.51
2019-05-23T10:56:39.213Z,1006.38
2019-05-23T10:57:39.371Z,1006.41
2019-05-23T10:58:39.569Z,1006.44
2019-05-23T10:59:39.721Z,1006.36
2019-05-23T11:00:39.883Z,1006.31
2019-05-23T11:01:40.040Z,1006.39
2019-05-23T11:02:40.188Z,1006.34
2019-05-23T11:03:40.369Z,1006.43
2019-05-23T11:04:40.579Z,1006.44
2019-05-23T11:05:40.747Z,1006.40
2019-05-23T11:06:40.905Z,1006.39
2019-05-23T11:07:41.094Z,1006.32
2019-05-23T11:08:41.303Z,1006.32
2019-05-23T11:09:41.476Z,1006.23
2019-05-23T11:10:41.647Z,1006.32
2019-05-23T11:11:41.882Z,1006.27
2019-05-23T11:12:41.963Z,1006.22
2019-05-23T11:13:42.136Z,1006.32
2019-05-23T11:14:42.319Z,1006.29
2019-05-23T11:15:42.530Z,1006.28
2019-05-23T11:16:42.709Z,1006.16
2019-05-23T11:17:43.001Z,1006.22
2019-05-23T11:18:43.113Z,1006.09
2019-05-23T11:19:43.300Z,1006.15
2019-05-23T11:20:43.519Z,1006.13
2019-05-23T11:21:43.710Z,1006.16
2019-05-23T11:22:43.924Z,1006.08
2019-05-23T11:23:44.101Z,1006.10
2019-05-23T11:24:44.311Z,1006.11
2019-05-23T11:25:44.496Z,1006.08
2019-05-23T11:26:44.663Z,1006.00
2019-05-23T11:27:44.847Z,1006.05
2019-05-23T11:28:45.044Z,1005.99
2019-05-23T11:29:45.228Z,1006.15
2019-05-23T11:30:45.404Z,1006.09
2019-05-23T11:31:45.542Z,1006.05
2019-05-23T11:32:45.731Z,1006.03
2019-05-23T11:33:45.915Z,1006.01
2019-05-23T11:34:46.074Z,1005.98
2019-05-23T11:35:47.292Z,1006.01
2019-05-23T11:36:46.495Z,1005.96
2019-05-23T11:37:46.641Z,1005.95
2019-05-23T11:38:46.823Z,1005.99
2019-05-23T11:39:49.468Z,1006.00
2019-05-23T11:40:48.221Z,1006.01
2019-05-23T11:41:47.366Z,1006.03
2019-05-23T11:42:47.523Z,1005.91
2019-05-23T11:43:47.678Z,1005.98
2019-05-23T11:44:47.849Z,1005.98
2019-05-23T11:45:48.031Z,1005.92
2019-05-23T11:46:48.222Z,1005.84
2019-05-23T11:47:48.381Z,1005.84
2019-05-23T11:48:48.564Z,1005.87
2019-05-23T11:49:48.769Z,1005.78
2019-05-23T11:50:48.891Z,1005.91
2019-05-23T11:51:49.044Z,1005.85
2019-05-23T11:52:49.195Z,1005.91
2019-05-23T11:54:05.852Z,1006.01
2019-05-23T11:54:51.520Z,1005.93
2019-05-23T11:55:54.054Z,1005.84
2019-05-23T11:56:50.768Z,1005.88
2019-05-23T11:57:49.924Z,1005.77
2019-05-23T11:58:50.156Z,1005.79
2019-05-23T11:59:50.323Z,1005.90
2019-05-23T12:00:50.512Z,1005.81
2019-05-23T12:01:50.639Z,1005.79
2019-05-23T12:02:50.828Z,1005.81
2019-05-23T12:03:51.023Z,1005.86
2019-05-23T12:04:51.224Z,1005.68
2019-05-23T12:05:51.325Z,1005.70
2019-05-23T12:06:55.840Z,1005.66
2019-05-23T12:07:53.688Z,1005.68